createdAt,value
2022-10-05T00:01:21.799Z,17.90
2022-10-05T00:03:48.288Z,17.80
2022-10-05T00:06:14.751Z,17.80
2022-10-05T00:08:41.232Z,17.90
2022-10-05T00:11:07.699Z,17.80
2022-10-05T00:13:34.199Z,17.80
2022-10-05T00:16:00.673Z,17.80
2022-10-05T00:18:27.160Z,17.90
2022-10-05T00:20:53.644Z,17.80
2022-10-05T00:23:20.146Z,17.80
2022-10-05T00:25:46.626Z,17.80
2022-10-05T00:28:13.141Z,17.80
2022-10-05T00:30:39.626Z,17.80
2022-10-05T00:33:06.084Z,17.80
2022-10-05T00:35:32.545Z,17.80
2022-10-05T00:37:59.049Z,17.80
2022-10-05T00:40:25.515Z,17.80
2022-10-05T00:42:51.992Z,17.70
2022-10-05T00:45:18.474Z,17.70
2022-10-05T00:47:44.950Z,17.80
2022-10-05T00:50:11.420Z,17.80
2022-10-05T00:52:37.895Z,17.80
2022-10-05T00:55:04.367Z,17.80
2022-10-05T00:57:30.820Z,17.80
2022-10-05T00:59:57.298Z,17.80
2022-10-05T01:02:23.864Z,17.80
2022-10-05T01:04:50.369Z,17.80
2022-10-05T01:07:16.855Z,17.90
2022-10-05T01:09:43.338Z,17.70
2022-10-05T01:12:09.795Z,17.70
2022-10-05T01:14:36.259Z,17.70
2022-10-05T01:17:02.798Z,17.80
2022-10-05T01:19:29.308Z,17.80
2022-10-05T01:21:55.765Z,17.80
2022-10-05T01:24:22.232Z,17.80
2022-10-05T01:26:48.979Z,17.70
2022-10-05T01:29:15.647Z,17.80
2022-10-05T01:31:42.190Z,17.80
2022-10-05T01:34:11.454Z,17.70
2022-10-05T01:36:38.217Z,17.80
2022-10-05T01:39:04.722Z,17.70
2022-10-05T01:41:31.189Z,17.80
2022-10-05T01:43:57.667Z,17.80
2022-10-05T01:46:24.140Z,17.70
2022-10-05T01:48:50.618Z,17.80
2022-10-05T01:51:17.082Z,17.70
2022-10-05T01:53:43.550Z,17.70
2022-10-05T01:56:10.007Z,17.70
2022-10-05T01:58:36.474Z,17.70
2022-10-05T02:01:02.969Z,17.70
2022-10-05T02:03:29.469Z,17.70
2022-10-05T02:05:55.910Z,17.70
2022-10-05T02:08:22.409Z,17.80
2022-10-05T02:10:48.868Z,17.70
2022-10-05T02:13:15.325Z,17.80
2022-10-05T02:15:41.843Z,17.80
2022-10-05T02:18:08.327Z,17.70
2022-10-05T02:20:34.807Z,17.70
2022-10-05T02:23:01.283Z,17.80
2022-10-05T02:25:27.750Z,17.70
2022-10-05T02:27:54.289Z,17.80
2022-10-05T02:30:20.849Z,17.80
2022-10-05T02:32:47.345Z,17.80
2022-10-05T02:35:13.851Z,17.70
2022-10-05T02:37:40.312Z,17.70
2022-10-05T02:40:06.775Z,17.70
2022-10-05T02:42:33.255Z,17.60
2022-10-05T02:44:59.760Z,17.70
2022-10-05T02:47:26.247Z,17.70
2022-10-05T02:49:52.740Z,17.70
2022-10-05T02:52:19.194Z,17.70
2022-10-05T02:54:45.658Z,17.60
2022-10-05T02:57:12.146Z,17.70
2022-10-05T02:59:38.611Z,17.70
2022-10-05T03:02:05.133Z,17.70
2022-10-05T03:04:31.633Z,17.60
2022-10-05T03:06:58.124Z,17.70
2022-10-05T03:09:24.604Z,17.70
2022-10-05T03:11:51.088Z,17.70
2022-10-05T03:14:17.571Z,17.70
2022-10-05T03:16:44.342Z,17.70
2022-10-05T03:19:11.050Z,17.60
2022-10-05T03:21:37.516Z,17.60
2022-10-05T03:24:03.990Z,17.70
2022-10-05T03:26:30.480Z,17.60
2022-10-05T03:28:56.953Z,17.70
2022-10-05T03:31:23.498Z,17.70
2022-10-05T03:33:50.010Z,17.70
2022-10-05T03:36:16.519Z,17.80
2022-10-05T03:38:42.994Z,17.80
2022-10-05T03:41:09.482Z,17.70
2022-10-05T03:43:35.955Z,17.70
2022-10-05T03:46:02.473Z,17.70
2022-10-05T03:48:28.979Z,17.70
2022-10-05T03:50:55.459Z,17.70
2022-10-05T03:53:21.913Z,17.70
2022-10-05T03:55:48.417Z,17.70
2022-10-05T03:58:14.900Z,17.70
2022-10-05T04:00:41.366Z,17.60
2022-10-05T04:03:07.834Z,17.60
2022-10-05T04:05:34.330Z,17.60
2022-10-05T04:08:00.801Z,17.60
2022-10-05T04:10:27.294Z,17.60
2022-10-05T04:12:53.751Z,17.50
2022-10-05T04:15:20.271Z,17.60
2022-10-05T04:17:46.756Z,17.60
2022-10-05T04:20:13.259Z,17.60
2022-10-05T04:22:39.727Z,17.60
2022-10-05T04:25:06.218Z,17.50
2022-10-05T04:27:32.702Z,17.50
2022-10-05T04:29:59.166Z,17.50
2022-10-05T04:32:25.651Z,17.50
2022-10-05T04:34:52.135Z,17.60
2022-10-05T04:37:18.629Z,17.60
2022-10-05T04:39:45.108Z,17.70
2022-10-05T04:42:11.590Z,17.70
2022-10-05T04:44:38.090Z,17.60
2022-10-05T04:47:04.655Z,17.70
2022-10-05T04:49:31.174Z,17.70
2022-10-05T04:51:57.659Z,17.70
2022-10-05T04:54:24.138Z,17.70
2022-10-05T04:56:50.615Z,17.70
2022-10-05T04:59:17.084Z,17.70
2022-10-05T05:01:43.563Z,17.60
2022-10-05T05:04:10.119Z,17.70
2022-10-05T05:06:36.654Z,17.70
2022-10-05T05:09:03.121Z,17.60
2022-10-05T05:11:29.605Z,17.40
2022-10-05T05:13:56.082Z,17.40
2022-10-05T05:16:22.598Z,17.50
2022-10-05T05:18:49.171Z,17.40
2022-10-05T05:21:15.647Z,17.50
2022-10-05T05:23:42.114Z,17.40
2022-10-05T05:26:08.597Z,17.50
2022-10-05T05:28:35.174Z,17.50
2022-10-05T05:31:01.732Z,17.60
2022-10-05T05:33:28.244Z,17.60
2022-10-05T05:35:54.740Z,17.50
2022-10-05T05:38:21.218Z,17.50
2022-10-05T05:40:47.701Z,17.60
2022-10-05T05:43:14.170Z,17.40
2022-10-05T05:45:40.649Z,17.60
2022-10-05T05:48:07.138Z,17.50
2022-10-05T05:50:33.632Z,17.60
2022-10-05T05:53:02.927Z,17.50
2022-10-05T05:55:30.505Z,17.50
2022-10-05T05:57:57.183Z,17.60
2022-10-05T06:00:23.663Z,17.50
2022-10-05T06:02:50.194Z,17.60
2022-10-05T06:05:16.746Z,17.60
2022-10-05T06:07:43.235Z,17.60
2022-10-05T06:10:09.727Z,17.60
2022-10-05T06:12:36.196Z,17.50
2022-10-05T06:15:02.662Z,17.60
2022-10-05T06:17:29.138Z,17.50
2022-10-05T06:19:55.603Z,17.50
2022-10-05T06:22:22.064Z,17.50
2022-10-05T06:24:48.529Z,17.50
2022-10-05T06:27:14.995Z,17.50
2022-10-05T06:29:41.481Z,17.50
2022-10-05T06:32:08.039Z,17.50
2022-10-05T06:34:34.534Z,17.50
2022-10-05T06:37:01.011Z,17.60
2022-10-05T06:39:27.487Z,17.50
2022-10-05T06:41:53.957Z,17.50
2022-10-05T06:44:20.415Z,17.50
2022-10-05T06:46:47.157Z,17.70
2022-10-05T06:49:13.836Z,17.60
2022-10-05T06:51:40.323Z,17.60
2022-10-05T06:54:06.809Z,17.50
2022-10-05T06:56:33.281Z,17.50
2022-10-05T06:58:59.747Z,17.60
2022-10-05T07:01:26.315Z,17.50
2022-10-05T07:03:52.813Z,17.60
2022-10-05T07:06:19.295Z,17.60
2022-10-05T07:08:45.756Z,17.60
2022-10-05T07:11:12.252Z,17.70
2022-10-05T07:13:38.731Z,17.60
2022-10-05T07:16:05.314Z,17.70
2022-10-05T07:18:31.838Z,17.60
2022-10-05T07:20:58.332Z,17.60
2022-10-05T07:23:24.819Z,17.60
2022-10-05T07:25:51.305Z,17.60
2022-10-05T07:28:17.816Z,17.60
2022-10-05T07:30:44.438Z,17.60
2022-10-05T07:33:10.942Z,17.60
2022-10-05T07:35:37.443Z,17.60
2022-10-05T07:38:03.925Z,17.60
2022-10-05T07:40:30.402Z,17.60
2022-10-05T07:42:56.881Z,17.60
2022-10-05T07:45:23.357Z,17.50
2022-10-05T07:47:49.841Z,17.60
2022-10-05T07:50:16.314Z,17.60
2022-10-05T07:52:42.785Z,17.70
2022-10-05T07:55:09.262Z,17.70
2022-10-05T07:57:35.741Z,17.70
2022-10-05T08:00:02.213Z,17.70
2022-10-05T08:02:28.748Z,17.60
2022-10-05T08:04:55.334Z,17.70
2022-10-05T08:07:21.821Z,17.60
2022-10-05T08:09:48.283Z,17.70
2022-10-05T08:12:14.757Z,17.70
2022-10-05T08:14:41.242Z,17.70
2022-10-05T08:17:07.731Z,17.70
2022-10-05T08:19:34.208Z,17.60
2022-10-05T08:22:00.677Z,17.70
2022-10-05T08:24:27.152Z,17.70
2022-10-05T08:26:53.646Z,17.70
2022-10-05T08:29:20.129Z,17.70
2022-10-05T08:31:46.895Z,17.70
2022-10-05T08:34:13.635Z,17.70
2022-10-05T08:36:40.118Z,17.70
2022-10-05T08:39:06.597Z,17.70
2022-10-05T08:41:33.068Z,17.70
2022-10-05T08:43:59.537Z,17.70
2022-10-05T08:46:26.091Z,17.70
2022-10-05T08:48:52.630Z,17.70
2022-10-05T08:51:19.099Z,17.70
2022-10-05T08:53:45.565Z,17.70
2022-10-05T08:56:15.289Z,17.70
2022-10-05T08:58:44.180Z,17.70
2022-10-05T09:01:10.684Z,17.80
2022-10-05T09:03:37.160Z,17.80
2022-10-05T09:06:03.631Z,17.70
2022-10-05T09:08:30.099Z,17.70
2022-10-05T09:10:56.587Z,17.70
2022-10-05T09:13:23.038Z,17.80
2022-10-05T09:15:49.578Z,17.80
2022-10-05T09:18:16.102Z,17.80
2022-10-05T09:20:42.603Z,17.70
2022-10-05T09:23:09.082Z,17.70
2022-10-05T09:25:35.599Z,17.80
2022-10-05T09:28:02.097Z,17.80
2022-10-05T09:30:28.579Z,17.80
2022-10-05T09:32:55.045Z,17.80
2022-10-05T09:35:21.522Z,17.80
2022-10-05T09:37:47.994Z,17.90
2022-10-05T09:40:14.498Z,17.90
2022-10-05T09:42:40.973Z,17.90
2022-10-05T09:45:07.473Z,17.90
2022-10-05T09:47:33.934Z,17.90
2022-10-05T09:50:03.206Z,17.90
2022-10-05T09:52:29.677Z,17.90
2022-10-05T09:54:56.148Z,17.90
2022-10-05T09:57:22.637Z,17.90
2022-10-05T09:59:49.100Z,17.80
2022-10-05T10:02:15.694Z,17.90
2022-10-05T10:04:42.233Z,17.90
2022-10-05T10:07:08.716Z,17.90
2022-10-05T10:09:37.945Z,17.90
2022-10-05T10:12:05.126Z,17.90
2022-10-05T10:14:31.579Z,17.90
2022-10-05T10:16:58.067Z,17.90
2022-10-05T10:19:24.558Z,17.90
2022-10-05T10:21:51.014Z,17.90
2022-10-05T10:24:17.480Z,17.90
2022-10-05T10:26:43.955Z,17.90
2022-10-05T10:29:10.423Z,17.90
2022-10-05T10:31:36.893Z,17.90
2022-10-05T10:34:03.397Z,17.90
2022-10-05T10:36:29.874Z,17.90
2022-10-05T10:38:56.359Z,17.90
2022-10-05T10:41:22.845Z,18.00
2022-10-05T10:43:49.322Z,18.00
2022-10-05T10:46:15.831Z,18.00
2022-10-05T10:48:42.326Z,18.10
2022-10-05T10:51:08.828Z,18.00
2022-10-05T10:53:35.297Z,18.00
2022-10-05T10:56:01.780Z,18.00
2022-10-05T10:58:28.245Z,18.00
2022-10-05T11:00:54.739Z,18.00
2022-10-05T11:03:21.445Z,18.00
2022-10-05T11:05:48.892Z,18.00
2022-10-05T11:08:15.548Z,18.00
2022-10-05T11:10:42.011Z,18.00
2022-10-05T11:13:08.481Z,18.00
2022-10-05T11:15:35.000Z,18.00
2022-10-05T11:18:01.502Z,18.00
2022-10-05T11:20:28.000Z,18.00
2022-10-05T11:22:54.480Z,18.00
2022-10-05T11:25:20.961Z,18.00
2022-10-05T11:27:47.421Z,18.00
2022-10-05T11:30:13.920Z,18.00
2022-10-05T11:32:40.398Z,18.00
2022-10-05T11:35:06.900Z,18.00
2022-10-05T11:37:33.365Z,18.00
2022-10-05T11:39:59.867Z,18.10
2022-10-05T11:42:26.337Z,18.10
2022-10-05T11:44:52.805Z,18.00
2022-10-05T11:47:19.274Z,18.00
2022-10-05T11:49:45.754Z,18.00
2022-10-05T11:52:12.235Z,18.00
2022-10-05T11:55:05.837Z,18.00
2022-10-05T11:57:25.154Z,18.10
2022-10-05T11:59:51.614Z,18.10
2022-10-05T12:02:18.087Z,18.10
2022-10-05T12:04:44.566Z,18.10
2022-10-05T12:07:11.037Z,18.10
2022-10-05T12:09:37.495Z,18.10
2022-10-05T12:12:03.965Z,18.10
2022-10-05T12:14:30.442Z,18.10
2022-10-05T12:16:56.931Z,18.10
2022-10-05T12:19:23.410Z,18.10
2022-10-05T12:21:49.867Z,18.20
2022-10-05T12:24:16.347Z,18.20
2022-10-05T12:26:42.824Z,18.20
2022-10-05T12:29:09.274Z,18.20
2022-10-05T12:31:35.811Z,18.20
2022-10-05T12:34:02.327Z,18.20
2022-10-05T12:36:46.254Z,18.20
2022-10-05T12:39:15.254Z,18.20
2022-10-05T12:41:41.758Z,18.20
2022-10-05T12:44:08.223Z,18.20
2022-10-05T12:46:34.708Z,18.20
2022-10-05T12:49:01.175Z,18.20
2022-10-05T12:51:27.657Z,18.30
2022-10-05T12:53:54.118Z,18.20
2022-10-05T12:56:20.593Z,18.20
2022-10-05T12:58:47.054Z,18.20
2022-10-05T13:01:13.570Z,18.20
2022-10-05T13:03:40.052Z,18.20
2022-10-05T13:06:06.536Z,18.30
2022-10-05T13:08:33.009Z,18.20
2022-10-05T13:11:01.986Z,18.30
2022-10-05T13:13:28.745Z,18.30
2022-10-05T13:15:55.454Z,18.30
2022-10-05T13:18:21.980Z,18.30
2022-10-05T13:20:48.463Z,18.30
2022-10-05T13:23:14.942Z,18.30
2022-10-05T13:25:41.428Z,18.30
2022-10-05T13:28:07.948Z,18.30
2022-10-05T13:30:34.508Z,18.30
2022-10-05T13:33:00.989Z,18.30
2022-10-05T13:35:27.491Z,18.30
2022-10-05T13:37:53.960Z,18.30
2022-10-05T13:40:20.435Z,18.30
2022-10-05T13:42:46.924Z,18.30
2022-10-05T13:45:13.393Z,18.30
2022-10-05T13:47:39.865Z,18.30
2022-10-05T13:50:06.377Z,18.30
2022-10-05T13:52:32.856Z,18.40
2022-10-05T13:54:59.319Z,18.30
2022-10-05T13:57:25.807Z,18.30
2022-10-05T13:59:52.283Z,18.40
2022-10-05T14:02:18.785Z,18.40
2022-10-05T14:04:45.265Z,18.30
2022-10-05T14:07:11.755Z,18.40
2022-10-05T14:09:38.226Z,18.40
2022-10-05T14:12:04.724Z,18.40
2022-10-05T14:14:31.197Z,18.40
2022-10-05T14:16:57.738Z,18.40
2022-10-05T14:19:24.299Z,18.40
2022-10-05T14:21:50.796Z,18.40
2022-10-05T14:24:32.095Z,18.40
2022-10-05T14:27:03.755Z,18.40
2022-10-05T14:29:30.268Z,18.40
2022-10-05T14:31:56.811Z,18.40
2022-10-05T14:34:23.381Z,18.40
2022-10-05T14:36:49.857Z,18.40
2022-10-05T14:39:16.311Z,18.50
2022-10-05T14:41:42.779Z,18.40
2022-10-05T14:44:09.260Z,18.40
2022-10-05T14:46:35.778Z,18.40
2022-10-05T14:49:02.276Z,18.40
2022-10-05T14:51:28.750Z,18.40
2022-10-05T14:53:55.361Z,18.40
2022-10-05T14:56:21.846Z,18.50
2022-10-05T14:58:48.347Z,18.50
2022-10-05T15:01:14.982Z,18.50
2022-10-05T15:03:41.502Z,18.50
2022-10-05T15:06:08.004Z,18.50
2022-10-05T15:08:34.472Z,18.40
2022-10-05T15:11:00.978Z,18.50
2022-10-05T15:13:27.454Z,18.50
2022-10-05T15:15:53.970Z,18.50
2022-10-05T15:18:20.440Z,18.50
2022-10-05T15:20:46.917Z,18.50
2022-10-05T15:23:13.391Z,18.60
2022-10-05T15:25:39.862Z,18.50
2022-10-05T15:28:06.410Z,18.60
2022-10-05T15:30:32.931Z,18.50
2022-10-05T15:32:59.425Z,18.50
2022-10-05T15:35:25.916Z,18.50
2022-10-05T15:37:52.395Z,18.50
2022-10-05T15:40:18.904Z,18.50
2022-10-05T15:42:45.387Z,18.60
2022-10-05T15:45:11.873Z,18.50
2022-10-05T15:47:38.361Z,18.50
2022-10-05T15:50:04.867Z,18.50
2022-10-05T15:52:31.896Z,18.50
2022-10-05T15:54:58.444Z,18.60
2022-10-05T15:57:24.913Z,18.50
2022-10-05T15:59:51.393Z,18.60
2022-10-05T16:02:17.983Z,18.50
2022-10-05T16:04:44.511Z,18.60
2022-10-05T16:07:11.006Z,18.60
2022-10-05T16:09:37.516Z,18.60
2022-10-05T16:12:03.974Z,18.60
2022-10-05T16:14:30.450Z,18.60
2022-10-05T16:16:59.779Z,18.60
2022-10-05T16:19:26.279Z,18.50
2022-10-05T16:21:52.774Z,18.60
2022-10-05T16:24:19.240Z,18.60
2022-10-05T16:26:45.717Z,18.60
2022-10-05T16:29:12.188Z,18.60
2022-10-05T16:31:38.675Z,18.60
2022-10-05T16:34:05.175Z,18.60
2022-10-05T16:36:31.641Z,18.60
2022-10-05T16:38:58.106Z,18.60
2022-10-05T16:41:24.589Z,18.60
2022-10-05T16:43:51.067Z,18.60
2022-10-05T16:46:20.832Z,18.60
2022-10-05T16:48:48.454Z,18.60
2022-10-05T16:51:14.943Z,18.50
2022-10-05T16:53:41.427Z,18.60
2022-10-05T16:56:07.891Z,18.60
2022-10-05T16:58:34.360Z,18.60
2022-10-05T17:01:00.833Z,18.60
2022-10-05T17:03:27.302Z,18.60
2022-10-05T17:05:53.807Z,18.60
2022-10-05T17:08:20.286Z,18.60
2022-10-05T17:10:46.791Z,18.60
2022-10-05T17:13:13.268Z,18.60
2022-10-05T17:15:39.881Z,18.60
2022-10-05T17:18:06.459Z,18.60
2022-10-05T17:20:32.947Z,18.60
2022-10-05T17:22:59.422Z,18.60
2022-10-05T17:25:25.911Z,18.60
2022-10-05T17:27:52.383Z,18.60
2022-10-05T17:30:18.872Z,18.60
2022-10-05T17:32:45.336Z,18.60
2022-10-05T17:35:15.928Z,18.60
2022-10-05T17:37:44.571Z,18.60
2022-10-05T17:40:11.026Z,18.60
2022-10-05T17:42:37.483Z,18.60
2022-10-05T17:45:03.959Z,18.60
2022-10-05T17:47:30.445Z,18.60
2022-10-05T17:49:56.913Z,18.60
2022-10-05T17:52:23.381Z,18.60
2022-10-05T17:54:49.848Z,18.60
2022-10-05T17:57:16.318Z,18.60
2022-10-05T17:59:42.789Z,18.60
2022-10-05T18:02:09.299Z,18.60
2022-10-05T18:04:35.791Z,18.60
2022-10-05T18:07:02.296Z,18.60
2022-10-05T18:09:28.769Z,18.60
2022-10-05T18:11:55.266Z,18.60
2022-10-05T18:14:21.736Z,18.60
2022-10-05T18:16:48.214Z,18.60
2022-10-05T18:19:14.703Z,18.60
2022-10-05T18:21:41.191Z,18.60
2022-10-05T18:24:07.671Z,18.60
2022-10-05T18:26:34.157Z,18.60
2022-10-05T18:29:00.618Z,18.60
2022-10-05T18:31:27.131Z,18.60
2022-10-05T18:33:53.621Z,18.60
2022-10-05T18:36:20.097Z,18.60
2022-10-05T18:38:46.585Z,18.60
2022-10-05T18:41:13.072Z,18.60
2022-10-05T18:43:39.533Z,18.60
2022-10-05T18:46:06.020Z,18.60
2022-10-05T18:48:33.645Z,18.60
2022-10-05T18:51:00.108Z,18.60
2022-10-05T18:53:26.576Z,18.60
2022-10-05T18:55:53.074Z,18.60
2022-10-05T18:58:19.502Z,18.60
2022-10-05T19:00:46.014Z,18.60
2022-10-05T19:03:12.494Z,18.60
2022-10-05T19:05:54.188Z,18.60
2022-10-05T19:08:20.651Z,18.60
2022-10-05T19:10:47.136Z,18.60
2022-10-05T19:13:13.591Z,18.60
2022-10-05T19:15:40.114Z,18.60
2022-10-05T19:18:06.609Z,18.50
2022-10-05T19:20:33.100Z,18.60
2022-10-05T19:22:59.675Z,18.60
2022-10-05T19:25:26.171Z,18.60
2022-10-05T19:27:55.369Z,18.60
2022-10-05T19:30:22.112Z,18.60
2022-10-05T19:32:48.595Z,18.60
2022-10-05T19:35:15.065Z,18.60
2022-10-05T19:37:41.528Z,18.60
2022-10-05T19:40:09.715Z,18.60
2022-10-05T19:42:36.605Z,18.50
2022-10-05T19:45:03.118Z,18.50
2022-10-05T19:47:29.583Z,18.60
2022-10-05T19:49:56.033Z,18.60
2022-10-05T19:52:22.524Z,18.60
2022-10-05T19:54:49.002Z,18.60
2022-10-05T19:57:15.494Z,18.60
2022-10-05T19:59:41.950Z,18.60
2022-10-05T20:02:08.489Z,18.50
2022-10-05T20:04:34.986Z,18.60
2022-10-05T20:07:01.466Z,18.50
2022-10-05T20:09:27.944Z,18.50
2022-10-05T20:11:54.433Z,18.60
2022-10-05T20:14:20.923Z,18.60
2022-10-05T20:16:47.391Z,18.60
2022-10-05T20:19:13.860Z,18.60
2022-10-05T20:21:40.347Z,18.60
2022-10-05T20:24:06.806Z,18.60
2022-10-05T20:26:33.285Z,18.60
2022-10-05T20:28:59.751Z,18.60
2022-10-05T20:31:26.264Z,18.60
2022-10-05T20:33:52.797Z,18.50
2022-10-05T20:36:19.258Z,18.60
2022-10-05T20:38:45.726Z,18.50
2022-10-05T20:41:12.203Z,18.50
2022-10-05T20:43:38.650Z,18.60
2022-10-05T20:46:05.110Z,18.50
2022-10-05T20:48:31.738Z,18.60
2022-10-05T20:50:58.392Z,18.60
2022-10-05T20:53:24.848Z,18.50
2022-10-05T20:55:51.329Z,18.50
2022-10-05T20:58:17.788Z,18.50
2022-10-05T21:00:44.294Z,18.60
2022-10-05T21:03:10.789Z,18.60
2022-10-05T21:05:37.265Z,18.60
2022-10-05T21:08:03.727Z,18.50
2022-10-05T21:10:30.239Z,18.60
2022-10-05T21:12:56.717Z,18.60
2022-10-05T21:15:23.187Z,18.60
2022-10-05T21:17:49.676Z,18.50
2022-10-05T21:20:16.136Z,18.60
2022-10-05T21:22:42.614Z,18.60
2022-10-05T21:25:09.111Z,18.60
2022-10-05T21:27:35.576Z,18.60
2022-10-05T21:30:02.028Z,18.60
2022-10-05T21:32:28.503Z,18.60
2022-10-05T21:34:54.995Z,18.60
2022-10-05T21:37:21.487Z,18.60
2022-10-05T21:39:47.951Z,18.60
2022-10-05T21:42:14.436Z,18.60
2022-10-05T21:44:40.932Z,18.60
2022-10-05T21:47:07.408Z,18.60
2022-10-05T21:49:33.868Z,18.60
2022-10-05T21:52:00.352Z,18.50
2022-10-05T21:54:26.819Z,18.50
2022-10-05T21:56:53.298Z,18.60
2022-10-05T21:59:19.763Z,18.50
2022-10-05T22:01:46.261Z,18.60
2022-10-05T22:04:12.748Z,18.60
2022-10-05T22:06:39.239Z,18.60
2022-10-05T22:09:05.694Z,18.60
2022-10-05T22:11:32.179Z,18.60
2022-10-05T22:13:58.691Z,18.60
2022-10-05T22:16:25.220Z,18.60
2022-10-05T22:18:51.740Z,18.60
2022-10-05T22:21:18.202Z,18.60
2022-10-05T22:23:44.666Z,18.60
2022-10-05T22:26:11.140Z,18.60
2022-10-05T22:28:37.668Z,18.60
2022-10-05T22:31:04.198Z,18.60
2022-10-05T22:33:30.670Z,18.60
2022-10-05T22:35:57.158Z,18.60
2022-10-05T22:38:23.636Z,18.60
2022-10-05T22:40:50.098Z,18.60
2022-10-05T22:43:16.564Z,18.60
2022-10-05T22:45:43.079Z,18.50
2022-10-05T22:48:09.573Z,18.60
2022-10-05T22:50:36.060Z,18.60
2022-10-05T22:53:02.524Z,18.60
2022-10-05T22:55:29.037Z,18.60
2022-10-05T22:57:55.509Z,18.60
2022-10-05T23:00:27.563Z,18.60
2022-10-05T23:02:54.264Z,18.60
2022-10-05T23:05:20.754Z,18.60
2022-10-05T23:07:47.218Z,18.60
2022-10-05T23:10:13.688Z,18.60
2022-10-05T23:12:40.156Z,18.60
2022-10-05T23:15:06.633Z,18.60
2022-10-05T23:17:33.108Z,18.50
2022-10-05T23:19:59.572Z,18.50
2022-10-05T23:22:26.045Z,18.50
2022-10-05T23:24:52.516Z,18.60
2022-10-05T23:27:18.993Z,18.50
2022-10-05T23:29:45.483Z,18.50
2022-10-05T23:32:11.956Z,18.60
2022-10-05T23:34:38.412Z,18.60
2022-10-05T23:37:04.874Z,18.60
2022-10-05T23:39:31.341Z,18.50
2022-10-05T23:41:57.821Z,18.50
2022-10-05T23:44:24.295Z,18.50
2022-10-05T23:46:50.777Z,18.50
2022-10-05T23:49:17.255Z,18.50
2022-10-05T23:51:43.742Z,18.50
2022-10-05T23:54:10.218Z,18.50
2022-10-05T23:56:36.692Z,18.50
2022-10-05T23:59:03.175Z,18.50
